Terminal Aerodrome Forecast
Issued by NWS

Current Version | Previous Version | Graphics & Text | Print | Product List | Glossary Off
Versions: 1 2 3 4 5 6 7 8 9 10 11 12 13 14 15 16 17 18 19 20 21 22

017
FTUS41 KPBZ 010520
TAFMGW
TAF
KMGW 010520Z 0106/0206 18010KT P6SM SCT250
     FM011400 19014G28KT P6SM BKN140
     FM011900 19015G33KT P6SM -SHRA VCTS OVC040CB
     FM012300 21011G24KT P6SM VCTS BKN050CB
     FM020100 21010G21KT P6SM SCT060
     FM020300 23009KT P6SM BKN060=

USA.gov is the U.S. government's official web portal to all federal, state and local government web resources and services.